Time;durP1;ratioP1;P1;durP2;ratioP2;P2;SDS_P1;SDS_P2;PMS_P1;PMS_P2;Temp;Humidity;BMP_temperature;BMP_pressure;BME280_temperature;BME280_humidity;BME280_pressure;Samples;Min_cycle;Max_cycle;Signal;HPM_P1;HPM_P2
2022/07/26 00:01:31;;;;;;;14.90;11.67;;;27.60;42.50;;;;;;5052671;28;20189;-46
2022/07/26 00:03:57;;;;;;;14.37;10.63;;;27.60;42.90;;;;;;5052803;28;20632;-46
2022/07/26 00:06:24;;;;;;;12.17;9.50;;;27.60;42.60;;;;;;5052290;28;20447;-45
2022/07/26 00:08:51;;;;;;;11.97;10.33;;;27.60;42.60;;;;;;5052794;28;20407;-46
2022/07/26 00:11:17;;;;;;;12.57;10.13;;;27.50;42.30;;;;;;5052489;28;20486;-47
2022/07/26 00:13:43;;;;;;;12.03;8.33;;;27.50;42.60;;;;;;5052520;28;20408;-45
2022/07/26 00:16:10;;;;;;;10.53;8.53;;;27.50;42.10;;;;;;5052136;28;20424;-46
2022/07/26 00:18:36;;;;;;;9.10;8.10;;;27.50;42.40;;;;;;5052252;28;20969;-46
2022/07/26 00:21:01;;;;;;;8.60;7.70;;;27.40;42.20;;;;;;5052124;28;20485;-45
2022/07/26 00:23:28;;;;;;;9.03;7.00;;;27.40;42.10;;;;;;5052517;28;20440;-45
2022/07/26 00:28:21;;;;;;;11.00;7.07;;;27.40;42.00;;;;;;5099408;22;20503;-46
2022/07/26 00:30:47;;;;;;;9.00;6.40;;;27.40;42.10;;;;;;5072558;28;20407;-47
2022/07/26 00:33:13;;;;;;;9.80;7.13;;;27.40;42.10;;;;;;5072225;28;20457;-47
2022/07/26 00:35:39;;;;;;;13.10;9.30;;;27.40;42.00;;;;;;5071959;28;20204;-47
2022/07/26 00:38:05;;;;;;;16.83;10.50;;;27.40;41.80;;;;;;5072045;28;20192;-47
2022/07/26 00:40:30;;;;;;;18.90;12.80;;;27.40;41.50;;;;;;5072159;28;20204;-47
2022/07/26 00:42:56;;;;;;;14.57;12.20;;;27.40;41.70;;;;;;5072261;28;20490;-47
2022/07/26 00:45:22;;;;;;;16.30;12.27;;;27.40;41.50;;;;;;5072020;28;20164;-46
2022/07/26 00:47:49;;;;;;;15.37;11.83;;;27.30;41.50;;;;;;5071803;28;20678;-46
2022/07/26 00:50:17;;;;;;;15.33;11.57;;;27.30;41.30;;;;;;5071997;28;20486;-46
2022/07/26 00:52:45;;;;;;;15.50;11.30;;;27.30;41.30;;;;;;5071986;28;20453;-47
2022/07/26 00:55:12;;;;;;;16.00;11.17;;;27.30;41.10;;;;;;5071919;28;20418;-46
2022/07/26 00:57:39;;;;;;;15.17;12.50;;;27.30;40.70;;;;;;5071631;28;20422;-47
2022/07/26 01:00:08;;;;;;;18.27;12.50;;;27.20;40.70;;;;;;5071965;28;20403;-46
2022/07/26 01:02:34;;;;;;;16.90;14.43;;;27.20;40.80;;;;;;5071915;28;20414;-46
2022/07/26 01:05:00;;;;;;;18.70;13.90;;;27.20;41.00;;;;;;5071912;28;20411;-47
2022/07/26 01:07:26;;;;;;;19.20;14.30;;;27.10;40.80;;;;;;5071384;28;20208;-47
2022/07/26 01:09:52;;;;;;;22.30;17.00;;;27.10;40.60;;;;;;5071817;28;20407;-46
2022/07/26 01:12:18;;;;;;;22.70;18.30;;;27.10;40.70;;;;;;5071748;28;20402;-47
2022/07/26 01:14:44;;;;;;;31.03;26.40;;;27.10;40.60;;;;;;5071788;28;20544;-46
2022/07/26 01:17:12;;;;;;;42.73;31.10;;;27.10;40.70;;;;;;5071499;28;20422;-46
2022/07/26 01:19:38;;;;;;;43.70;34.17;;;27.10;40.20;;;;;;5071784;28;20406;-46
2022/07/26 01:22:04;;;;;;;56.10;40.67;;;27.10;40.00;;;;;;5071587;28;20756;-46
2022/07/26 01:24:29;;;;;;;48.00;38.77;;;27.10;39.90;;;;;;5071726;28;20402;-46
2022/07/26 01:26:55;;;;;;;45.40;36.33;;;27.10;39.90;;;;;;5071172;28;20473;-46
2022/07/26 01:29:22;;;;;;;51.30;39.87;;;27.10;40.00;;;;;;5071869;28;20173;-46
2022/07/26 01:31:48;;;;;;;52.80;36.77;;;27.10;40.30;;;;;;5071661;28;20395;-46
2022/07/26 01:34:14;;;;;;;52.40;40.50;;;27.00;40.40;;;;;;5071598;28;20410;-47
2022/07/26 01:36:40;;;;;;;50.00;39.90;;;27.00;40.80;;;;;;5071228;28;20418;-46
2022/07/26 01:39:06;;;;;;;43.90;38.97;;;27.00;40.80;;;;;;5075172;28;20468;-46
2022/07/26 01:41:32;;;;;;;46.20;33.27;;;27.00;41.10;;;;;;5075349;28;20409;-46
2022/07/26 01:43:58;;;;;;;33.33;25.10;;;27.00;41.60;;;;;;5075286;28;20780;-47
2022/07/26 01:46:24;;;;;;;26.87;21.17;;;26.90;41.40;;;;;;5074884;28;20451;-46
2022/07/26 01:48:51;;;;;;;21.37;17.67;;;26.90;41.90;;;;;;5075233;28;20248;-46
2022/07/26 01:51:16;;;;;;;20.50;16.30;;;26.80;41.80;;;;;;5075145;28;20165;-47
2022/07/26 01:53:44;;;;;;;15.57;12.93;;;26.80;42.30;;;;;;5075060;28;20407;-46
2022/07/26 01:56:11;;;;;;;17.90;14.47;;;26.80;42.80;;;;;;5074741;28;20544;-46
2022/07/26 01:58:37;;;;;;;13.43;11.40;;;26.70;42.80;;;;;;5075055;28;20398;-46
2022/07/26 02:01:03;;;;;;;22.37;14.73;;;26.70;43.50;;;;;;5075251;28;20455;-46
2022/07/26 02:03:28;;;;;;;17.57;13.70;;;26.60;43.60;;;;;;5074980;28;20667;-46
2022/07/26 02:05:54;;;;;;;18.17;14.27;;;26.50;45.00;;;;;;5074580;28;20469;-46
2022/07/26 02:08:20;;;;;;;20.57;14.30;;;26.50;44.60;;;;;;5074667;28;20223;-46
2022/07/26 02:11:01;;;;;;;20.90;14.47;;;26.40;45.10;;;;;;5074797;28;20410;-46
2022/07/26 02:13:34;;;;;;;19.07;14.70;;;26.40;45.60;;;;;;5074919;28;20169;-46
2022/07/26 02:16:02;;;;;;;20.57;16.50;;;26.30;45.70;;;;;;5074700;28;20410;-46
2022/07/26 02:18:30;;;;;;;25.97;18.43;;;26.30;45.70;;;;;;5074632;28;20495;-46
2022/07/26 02:20:57;;;;;;;22.40;17.97;;;26.30;45.80;;;;;;5074925;28;20492;-46
2022/07/26 02:23:24;;;;;;;30.87;22.20;;;26.30;45.60;;;;;;5074809;28;20739;-46
2022/07/26 02:25:50;;;;;;;30.10;20.70;;;26.30;45.40;;;;;;5074385;28;20488;-46
2022/07/26 02:28:16;;;;;;;31.00;21.70;;;26.20;45.70;;;;;;5074357;28;20438;-46
2022/07/26 02:30:44;;;;;;;38.47;27.40;;;26.20;45.60;;;;;;5074543;28;21112;-46
2022/07/26 02:33:10;;;;;;;35.33;26.07;;;26.20;45.40;;;;;;5074350;28;20399;-46
2022/07/26 02:35:36;;;;;;;30.63;26.87;;;26.20;45.40;;;;;;5074057;28;20403;-46
2022/07/26 02:38:07;;;;;;;33.90;26.23;;;26.20;45.40;;;;;;5074284;28;20423;-46
2022/07/26 02:40:33;;;;;;;31.40;25.23;;;26.10;45.30;;;;;;5074224;28;20406;-46
2022/07/26 02:42:59;;;;;;;32.23;24.77;;;26.10;45.40;;;;;;5074307;28;20395;-45
2022/07/26 02:45:25;;;;;;;33.73;27.00;;;26.10;45.40;;;;;;5074070;28;20948;-46
2022/07/26 02:47:53;;;;;;;39.63;27.93;;;26.10;45.70;;;;;;5073865;28;20760;-46
2022/07/26 02:50:21;;;;;;;35.57;25.37;;;26.00;45.80;;;;;;5072978;28;20478;-46
2022/07/26 02:52:47;;;;;;;38.70;29.40;;;26.00;45.70;;;;;;5074027;28;20399;-46
2022/07/26 02:55:14;;;;;;;35.90;27.93;;;26.00;45.60;;;;;;5073954;28;20537;-46
2022/07/26 02:57:40;;;;;;;35.43;28.10;;;25.90;45.00;;;;;;5073678;28;20433;-46
2022/07/26 03:00:08;;;;;;;32.50;26.03;;;25.90;45.20;;;;;;5073820;28;20406;-46
2022/07/26 03:02:34;;;;;;;29.67;24.33;;;25.90;45.70;;;;;;5073841;28;20423;-46
2022/07/26 03:05:01;;;;;;;28.43;22.47;;;25.90;45.60;;;;;;5073721;28;20490;-46
2022/07/26 03:07:27;;;;;;;32.77;25.30;;;25.90;45.50;;;;;;5073597;28;20204;-46
2022/07/26 03:09:53;;;;;;;23.00;20.23;;;25.90;45.60;;;;;;5073696;28;20395;-46
2022/07/26 03:12:19;;;;;;;29.70;21.50;;;25.90;45.60;;;;;;5073650;28;20404;-47
2022/07/26 03:14:45;;;;;;;25.10;17.10;;;25.90;45.50;;;;;;5073662;28;20492;-46
2022/07/26 03:17:10;;;;;;;19.90;17.00;;;25.90;45.40;;;;;;5073478;28;20261;-46
2022/07/26 03:19:36;;;;;;;18.90;16.90;;;25.90;45.50;;;;;;5073644;28;20763;-46
2022/07/26 03:22:02;;;;;;;20.00;13.57;;;25.90;45.60;;;;;;5073427;28;20179;-45
2022/07/26 03:24:28;;;;;;;14.47;12.30;;;25.90;45.60;;;;;;5073455;28;20243;-45
2022/07/26 03:26:54;;;;;;;19.73;14.10;;;25.90;45.40;;;;;;5073012;28;20223;-46
2022/07/26 03:29:19;;;;;;;13.17;11.17;;;25.90;45.70;;;;;;5073257;28;20248;-46
2022/07/26 03:31:45;;;;;;;16.77;11.40;;;25.90;45.50;;;;;;5073260;28;20322;-45
2022/07/26 03:34:11;;;;;;;12.07;9.90;;;25.90;45.30;;;;;;5073136;28;20691;-46
2022/07/26 03:36:37;;;;;;;13.23;10.50;;;25.90;45.30;;;;;;5072857;28;20203;-46
2022/07/26 03:39:03;;;;;;;13.07;10.33;;;25.90;45.20;;;;;;5073142;28;20248;-46
2022/07/26 03:41:30;;;;;;;14.20;10.10;;;25.90;45.30;;;;;;5073004;28;20490;-46
2022/07/26 03:43:56;;;;;;;14.80;10.20;;;25.90;45.70;;;;;;5072955;28;20664;-47
2022/07/26 03:46:22;;;;;;;10.83;9.47;;;25.90;45.50;;;;;;5072447;28;20520;-46
2022/07/26 03:48:48;;;;;;;15.00;9.30;;;25.80;45.20;;;;;;5073098;28;20490;-46
2022/07/26 03:51:14;;;;;;;11.97;8.83;;;25.80;45.20;;;;;;5072811;28;20839;-46
2022/07/26 03:53:40;;;;;;;10.27;9.27;;;25.90;45.10;;;;;;5072764;28;20410;-46
2022/07/26 03:58:50;;;;;;;11.40;10.20;;;25.80;45.50;;;;;;5072839;28;20160;-47
2022/07/26 04:01:16;;;;;;;11.20;8.63;;;25.80;45.90;;;;;;5072569;28;20415;-46
2022/07/26 04:03:41;;;;;;;11.50;8.27;;;25.80;45.80;;;;;;5072725;28;20698;-46
2022/07/26 04:06:09;;;;;;;10.70;8.90;;;25.70;45.60;;;;;;5072235;28;20450;-46
2022/07/26 04:08:35;;;;;;;10.27;8.57;;;25.70;45.70;;;;;;5072498;28;20535;-45
2022/07/26 04:11:00;;;;;;;13.33;9.73;;;25.60;45.80;;;;;;5072483;28;21068;-46
2022/07/26 04:13:26;;;;;;;10.00;7.87;;;25.70;45.90;;;;;;5072528;28;20474;-47
2022/07/26 04:15:52;;;;;;;11.77;8.03;;;25.70;45.30;;;;;;5072253;28;20183;-47
2022/07/26 04:18:18;;;;;;;9.97;8.07;;;25.70;45.60;;;;;;5072272;28;20560;-46
2022/07/26 04:20:44;;;;;;;11.70;8.80;;;25.70;45.50;;;;;;5072403;28;20414;-46
2022/07/26 04:23:11;;;;;;;13.10;7.80;;;25.70;45.20;;;;;;5072481;28;20403;-46
2022/07/26 04:25:36;;;;;;;12.00;8.60;;;25.80;45.40;;;;;;5071958;28;20411;-46
2022/07/26 04:28:02;;;;;;;10.97;8.93;;;25.80;45.30;;;;;;5072090;28;20439;-46
2022/07/26 04:30:28;;;;;;;10.93;8.00;;;25.80;45.10;;;;;;5072260;28;20165;-46
2022/07/26 04:32:54;;;;;;;8.77;7.87;;;25.80;45.30;;;;;;5072138;28;20760;-46
2022/07/26 04:35:20;;;;;;;9.40;6.57;;;25.80;45.20;;;;;;5072192;28;20171;-47
2022/07/26 04:37:46;;;;;;;7.20;5.83;;;25.80;45.10;;;;;;5071824;28;20907;-46
2022/07/26 04:40:17;;;;;;;8.77;6.00;;;25.80;44.80;;;;;;5072076;28;20403;-46
2022/07/26 04:42:43;;;;;;;10.03;6.20;;;25.90;45.00;;;;;;5072327;28;20268;-46
2022/07/26 04:45:09;;;;;;;7.03;5.80;;;25.80;45.10;;;;;;5072053;28;20493;-46
2022/07/26 04:47:35;;;;;;;10.20;5.60;;;25.80;45.10;;;;;;5071592;28;20457;-46
2022/07/26 04:50:02;;;;;;;9.67;6.00;;;25.90;44.90;;;;;;5071960;28;20398;-46
2022/07/26 04:52:28;;;;;;;5.60;4.80;;;25.90;44.80;;;;;;5072051;28;20169;-46
2022/07/26 04:54:53;;;;;;;6.57;4.80;;;25.90;45.00;;;;;;5071853;28;20743;-46
2022/07/26 04:57:19;;;;;;;9.20;5.90;;;25.90;45.10;;;;;;5071653;28;20200;-46
2022/07/26 04:59:45;;;;;;;8.50;5.23;;;25.90;44.80;;;;;;5053806;28;20181;-46
2022/07/26 05:02:13;;;;;;;7.90;5.47;;;26.00;45.30;;;;;;5071885;28;20176;-46
2022/07/26 05:04:41;;;;;;;7.53;5.23;;;26.00;45.20;;;;;;5071836;28;20259;-46
2022/07/26 05:07:07;;;;;;;11.33;4.90;;;26.00;45.30;;;;;;5071452;28;20462;-46
2022/07/26 05:09:33;;;;;;;6.80;4.47;;;26.00;45.30;;;;;;5072050;28;20407;-46
2022/07/26 05:11:59;;;;;;;4.73;4.00;;;26.00;44.80;;;;;;5072359;28;20476;-46
2022/07/26 05:14:25;;;;;;;6.30;3.90;;;26.00;44.70;;;;;;5075945;28;20168;-46
2022/07/26 05:16:51;;;;;;;5.07;4.00;;;26.00;44.90;;;;;;5075521;28;20514;-46
2022/07/26 05:19:16;;;;;;;6.70;4.50;;;26.00;45.00;;;;;;5075691;28;20172;-46
2022/07/26 05:21:42;;;;;;;9.60;5.00;;;26.00;45.00;;;;;;5075773;28;20184;-46
2022/07/26 05:24:08;;;;;;;5.00;4.50;;;26.10;44.90;;;;;;5075823;28;20583;-46
2022/07/26 05:26:34;;;;;;;6.00;4.27;;;26.10;44.80;;;;;;5075287;28;20212;-46
2022/07/26 05:29:00;;;;;;;5.20;3.57;;;26.10;44.90;;;;;;5075620;28;20383;-46
2022/07/26 05:31:26;;;;;;;7.57;4.50;;;26.10;45.10;;;;;;5075407;28;20429;-46
2022/07/26 05:33:51;;;;;;;6.13;3.70;;;26.20;45.20;;;;;;5075495;28;20395;-46
2022/07/26 05:36:18;;;;;;;8.57;4.10;;;26.20;45.30;;;;;;5075542;28;20196;-46
2022/07/26 05:38:44;;;;;;;6.07;4.20;;;26.20;45.00;;;;;;5076773;28;20177;-45
2022/07/26 05:41:10;;;;;;;6.77;4.67;;;26.20;44.90;;;;;;5077464;28;20559;-45
2022/07/26 05:43:36;;;;;;;5.20;3.70;;;26.30;44.70;;;;;;5077913;28;20240;-45
2022/07/26 05:46:03;;;;;;;8.33;4.37;;;26.30;44.70;;;;;;5078227;28;20556;-44
2022/07/26 05:48:28;;;;;;;4.73;3.70;;;26.30;44.50;;;;;;5080744;28;20486;-43
2022/07/26 05:50:54;;;;;;;5.97;4.23;;;26.30;44.50;;;;;;5080031;28;20445;-43
2022/07/26 05:53:20;;;;;;;7.10;3.70;;;26.30;44.40;;;;;;5079267;28;20251;-44
2022/07/26 05:55:46;;;;;;;5.43;4.10;;;26.40;44.40;;;;;;5080135;28;20195;-45
2022/07/26 05:58:12;;;;;;;3.87;3.43;;;26.40;43.90;;;;;;5080749;28;20271;-45
2022/07/26 06:00:38;;;;;;;6.63;3.70;;;26.40;44.20;;;;;;5080792;28;20403;-45
2022/07/26 06:03:20;;;;;;;9.40;4.83;;;26.40;44.10;;;;;;5076469;28;20755;-45
2022/07/26 06:05:54;;;;;;;6.73;3.80;;;26.40;44.10;;;;;;5075381;28;20153;-45
2022/07/26 06:08:20;;;;;;;5.73;3.73;;;26.40;43.80;;;;;;5075874;28;20454;-46
2022/07/26 06:10:47;;;;;;;10.63;4.50;;;26.50;43.70;;;;;;5075014;28;20403;-46
2022/07/26 06:13:13;;;;;;;5.97;3.70;;;26.50;43.80;;;;;;5074715;28;20402;-46
2022/07/26 06:15:41;;;;;;;5.40;3.40;;;26.50;43.70;;;;;;5074392;28;20414;-45
2022/07/26 06:18:07;;;;;;;9.30;4.10;;;26.60;43.40;;;;;;5074461;28;20430;-45
2022/07/26 06:20:33;;;;;;;5.77;3.97;;;26.70;43.60;;;;;;5074623;28;20442;-46
2022/07/26 06:22:59;;;;;;;4.77;3.40;;;26.70;43.20;;;;;;5074761;28;20461;-46
2022/07/26 06:25:26;;;;;;;5.17;3.40;;;26.60;43.20;;;;;;5074706;28;20406;-46
2022/07/26 06:27:52;;;;;;;4.10;3.30;;;26.70;42.30;;;;;;5074104;28;20825;-45
2022/07/26 06:30:18;;;;;;;3.97;3.47;;;26.60;41.50;;;;;;5074621;28;20485;-47
2022/07/26 06:32:44;;;;;;;5.23;3.57;;;26.70;41.10;;;;;;5079033;22;21042;-43
2022/07/26 06:35:11;;;;;;;3.80;2.50;;;26.70;41.50;;;;;;5055131;28;20427;-45
2022/07/26 06:37:37;;;;;;;3.87;3.10;;;26.70;40.20;;;;;;5035932;28;20411;-45
2022/07/26 06:40:05;;;;;;;6.83;3.00;;;26.70;40.60;;;;;;5035929;28;20405;-43
2022/07/26 06:42:32;;;;;;;3.07;2.37;;;26.70;40.20;;;;;;5036078;28;20444;-43
2022/07/26 06:44:58;;;;;;;4.37;2.43;;;26.70;39.70;;;;;;5035663;28;20401;-44
2022/07/26 06:47:24;;;;;;;7.73;3.70;;;26.80;39.40;;;;;;5035898;28;20448;-45
2022/07/26 06:49:50;;;;;;;2.87;2.20;;;26.80;38.90;;;;;;5034355;28;20404;-45
2022/07/26 06:52:16;;;;;;;3.50;2.17;;;26.80;38.90;;;;;;5035871;28;20405;-46
2022/07/26 06:54:42;;;;;;;3.33;2.20;;;26.90;38.80;;;;;;5035723;28;20241;-46
2022/07/26 06:57:08;;;;;;;6.90;2.47;;;27.00;39.10;;;;;;5035473;28;20432;-44
2022/07/26 06:59:34;;;;;;;4.30;1.60;;;27.00;38.80;;;;;;5035918;28;20235;-44
2022/07/26 07:02:00;;;;;;;3.70;2.23;;;27.10;38.20;;;;;;5033959;28;20225;-44
2022/07/26 07:04:31;;;;;;;4.20;1.70;;;27.10;37.30;;;;;;5033994;28;20927;-46
2022/07/26 07:07:01;;;;;;;2.97;1.60;;;27.10;37.70;;;;;;5033521;28;20459;-45
2022/07/26 07:09:28;;;;;;;4.07;2.00;;;27.10;37.80;;;;;;5034032;28;20433;-45
2022/07/26 07:11:54;;;;;;;4.13;1.70;;;27.20;37.50;;;;;;5033758;28;20488;-44
2022/07/26 07:14:20;;;;;;;4.73;2.60;;;27.20;37.60;;;;;;5033573;28;20433;-44
2022/07/26 07:16:46;;;;;;;2.43;1.40;;;27.30;37.80;;;;;;5033660;28;20401;-44
2022/07/26 07:19:12;;;;;;;3.27;1.90;;;27.30;37.50;;;;;;5033601;28;20936;-43
2022/07/26 07:21:38;;;;;;;2.70;2.07;;;27.40;36.00;;;;;;5033823;28;20174;-45
2022/07/26 07:24:05;;;;;;;2.67;1.87;;;27.30;36.00;;;;;;5033742;28;20463;-44
2022/07/26 07:26:31;;;;;;;2.80;1.40;;;27.30;35.70;;;;;;5033387;28;20452;-44
2022/07/26 07:28:57;;;;;;;4.03;2.40;;;27.30;34.90;;;;;;5033390;28;20428;-45
2022/07/26 07:31:24;;;;;;;5.03;1.97;;;27.30;35.70;;;;;;5033380;28;20440;-44
2022/07/26 07:33:50;;;;;;;3.13;1.80;;;27.40;36.20;;;;;;5033251;28;20216;-44
2022/07/26 07:36:16;;;;;;;3.03;1.97;;;27.40;36.30;;;;;;5032653;28;20414;-44
2022/07/26 07:38:44;;;;;;;3.70;1.93;;;27.50;35.20;;;;;;5033252;28;20417;-44
2022/07/26 07:41:10;;;;;;;2.53;1.67;;;27.60;35.10;;;;;;5033382;28;20496;-44
2022/07/26 07:43:36;;;;;;;5.30;1.87;;;27.60;35.50;;;;;;5033308;28;20464;-44
2022/07/26 07:46:01;;;;;;;2.47;1.60;;;27.70;35.30;;;;;;5032836;28;20448;-45
2022/07/26 07:48:27;;;;;;;2.80;1.87;;;27.80;35.00;;;;;;5033086;28;20467;-44
2022/07/26 07:50:53;;;;;;;3.70;1.70;;;27.90;34.40;;;;;;5033013;28;20264;-45
2022/07/26 07:53:19;;;;;;;4.33;1.40;;;27.90;34.60;;;;;;5032929;28;20189;-44
2022/07/26 07:55:44;;;;;;;2.83;1.23;;;28.00;34.40;;;;;;5032668;28;20204;-44
2022/07/26 07:58:10;;;;;;;4.77;1.80;;;28.00;34.30;;;;;;5032915;28;20177;-45
2022/07/26 08:00:36;;;;;;;2.87;1.40;;;28.10;34.20;;;;;;5032561;28;20224;-43
2022/07/26 08:03:02;;;;;;;6.33;2.60;;;28.20;32.60;;;;;;5032669;28;20193;-44
2022/07/26 08:05:28;;;;;;;3.00;1.50;;;28.20;33.20;;;;;;5032695;28;20401;-45
2022/07/26 08:07:53;;;;;;;3.87;1.40;;;28.30;33.10;;;;;;5032470;28;20562;-44
2022/07/26 08:10:19;;;;;;;3.50;1.50;;;28.40;33.60;;;;;;5032888;28;20177;-45
2022/07/26 08:12:45;;;;;;;6.17;2.50;;;28.40;33.60;;;;;;5032733;28;20201;-44
2022/07/26 08:15:11;;;;;;;2.30;1.10;;;28.50;33.90;;;;;;5032580;28;20170;-43
2022/07/26 08:17:37;;;;;;;2.17;1.30;;;28.60;32.70;;;;;;5032402;28;20174;-45
2022/07/26 08:20:03;;;;;;;5.33;1.77;;;28.60;32.30;;;;;;5032526;28;20412;-44
2022/07/26 08:22:29;;;;;;;2.63;1.17;;;28.60;32.50;;;;;;5032415;28;20681;-44
2022/07/26 08:24:55;;;;;;;6.10;1.30;;;28.70;32.40;;;;;;5032385;28;20433;-44
2022/07/26 08:27:21;;;;;;;4.43;1.60;;;28.60;32.40;;;;;;5032167;28;20225;-44
2022/07/26 08:29:46;;;;;;;2.60;1.10;;;28.60;32.60;;;;;;5032420;28;20655;-45
2022/07/26 08:32:12;;;;;;;4.00;1.40;;;28.50;32.40;;;;;;5032368;28;20401;-46
2022/07/26 08:34:38;;;;;;;2.73;1.53;;;28.40;32.20;;;;;;5032147;28;20201;-45
2022/07/26 08:37:03;;;;;;;3.20;1.40;;;28.20;32.20;;;;;;5032039;28;20169;-44
2022/07/26 08:39:29;;;;;;;20.83;2.90;;;28.10;32.20;;;;;;5032203;28;20177;-45
2022/07/26 08:41:55;;;;;;;2.90;1.63;;;28.00;32.90;;;;;;5032478;28;20173;-44
2022/07/26 08:44:21;;;;;;;10.47;1.90;;;27.90;32.80;;;;;;5032156;28;20189;-44
2022/07/26 08:46:47;;;;;;;3.43;1.90;;;27.80;32.90;;;;;;5031120;28;20194;-44
2022/07/26 08:49:13;;;;;;;2.60;1.30;;;27.80;33.30;;;;;;5032158;28;20247;-44
2022/07/26 08:51:43;;;;;;;2.80;1.70;;;27.80;33.10;;;;;;5032129;28;20173;-45
2022/07/26 08:54:11;;;;;;;3.93;2.77;;;27.90;33.20;;;;;;5031790;28;20491;-45
2022/07/26 08:56:50;;;;;;;2.90;2.00;;;28.00;33.40;;;;;;5031680;28;20880;-44
2022/07/26 08:59:18;;;;;;;2.83;1.97;;;28.10;33.20;;;;;;5032345;28;20397;-44
2022/07/26 09:01:56;;;;;;;4.40;1.73;;;28.30;33.20;;;;;;5031928;28;20416;-44
2022/07/26 09:04:27;;;;;;;3.33;1.60;;;28.40;33.60;;;;;;5031895;28;20927;-45
2022/07/26 09:07:08;;;;;;;3.57;2.23;;;28.50;32.70;;;;;;5032003;28;20456;-44
2022/07/26 09:09:37;;;;;;;2.73;1.80;;;28.60;32.40;;;;;;5031883;28;20436;-44
2022/07/26 09:12:18;;;;;;;2.10;1.30;;;28.80;32.30;;;;;;5032108;28;20441;-44
2022/07/26 09:14:47;;;;;;;3.20;1.70;;;28.90;31.60;;;;;;5031924;28;20714;-44
2022/07/26 09:17:15;;;;;;;6.63;2.00;;;29.10;32.20;;;;;;5031525;28;20420;-45
2022/07/26 09:19:41;;;;;;;3.10;1.80;;;29.30;32.30;;;;;;5031815;28;20455;-45
2022/07/26 09:22:12;;;;;;;4.67;1.30;;;29.40;31.70;;;;;;5031840;28;20417;-45
2022/07/26 09:24:44;;;;;;;3.10;1.60;;;29.50;30.90;;;;;;5031684;28;20466;-45
2022/07/26 09:27:12;;;;;;;2.13;1.30;;;29.60;29.60;;;;;;5031441;28;20455;-44
2022/07/26 09:29:42;;;;;;;3.87;1.57;;;29.70;30.50;;;;;;5031880;28;20761;-44
2022/07/26 09:32:17;;;;;;;4.87;1.27;;;29.80;30.70;;;;;;5031702;28;20408;-44
2022/07/26 09:34:51;;;;;;;2.00;1.30;;;30.00;30.40;;;;;;5031665;28;20423;-44
2022/07/26 09:37:18;;;;;;;3.33;1.70;;;30.10;30.60;;;;;;5031422;28;20428;-45
2022/07/26 09:39:58;;;;;;;3.03;1.40;;;30.10;30.30;;;;;;5031588;28;20496;-45
2022/07/26 09:42:25;;;;;;;3.27;1.30;;;30.10;29.70;;;;;;5031655;28;20400;-45
2022/07/26 09:44:52;;;;;;;4.50;1.40;;;30.10;29.30;;;;;;5031742;28;20467;-45
2022/07/26 09:47:18;;;;;;;2.20;1.43;;;30.10;29.40;;;;;;5031256;28;20453;-44
2022/07/26 09:49:44;;;;;;;4.40;1.70;;;30.00;29.70;;;;;;5031578;28;20414;-44
2022/07/26 09:52:20;;;;;;;3.27;1.53;;;30.00;28.70;;;;;;5031566;28;20408;-46
2022/07/26 09:54:48;;;;;;;3.07;1.80;;;30.10;29.20;;;;;;5031528;28;20385;-44
2022/07/26 09:57:16;;;;;;;7.13;2.43;;;30.10;29.60;;;;;;5031583;28;20750;-45
2022/07/26 09:59:42;;;;;;;3.33;1.57;;;30.10;29.40;;;;;;5034321;28;20409;-46
2022/07/26 10:02:09;;;;;;;5.70;1.70;;;30.10;29.30;;;;;;5035071;28;20949;-45
2022/07/26 10:04:35;;;;;;;2.27;1.70;;;29.90;28.20;;;;;;5035157;28;20428;-44
2022/07/26 10:07:02;;;;;;;2.97;1.53;;;29.80;28.80;;;;;;5034694;28;20958;-44
2022/07/26 10:09:43;;;;;;;4.60;2.27;;;29.80;29.00;;;;;;5035106;28;20405;-45
2022/07/26 10:12:14;;;;;;;3.30;1.70;;;29.80;29.70;;;;;;5034999;28;20494;-45
2022/07/26 10:14:50;;;;;;;3.23;1.47;;;29.90;30.00;;;;;;5034755;28;20951;-46
2022/07/26 10:17:36;;;;;;;3.30;1.50;;;30.00;28.50;;;;;;5034923;28;20405;-46
2022/07/26 10:20:05;;;;;;;3.40;1.67;;;30.00;28.00;;;;;;5027574;28;20420;-44
2022/07/26 10:22:34;;;;;;;2.10;1.10;;;30.00;28.60;;;;;;5034653;28;20416;-44
2022/07/26 10:25:18;;;;;;;3.00;1.20;;;30.10;29.70;;;;;;5034560;28;20404;-45
2022/07/26 10:27:52;;;;;;;2.07;1.20;;;30.20;28.80;;;;;;5034321;28;20439;-45
2022/07/26 10:30:18;;;;;;;2.20;1.50;;;30.30;28.50;;;;;;5034493;28;20384;-45
2022/07/26 10:33:05;;;;;;;2.93;1.30;;;30.20;28.00;;;;;;5034565;28;20990;-46
2022/07/26 10:35:40;;;;;;;2.50;1.80;;;30.20;27.50;;;;;;5034325;28;20670;-45
2022/07/26 10:38:07;;;;;;;3.10;1.60;;;30.20;28.30;;;;;;5034455;28;20388;-45
2022/07/26 10:40:34;;;;;;;4.93;1.40;;;30.20;28.00;;;;;;5034379;28;20409;-45
2022/07/26 10:43:13;;;;;;;2.47;1.70;;;30.20;28.00;;;;;;5034526;28;20432;-46
2022/07/26 10:45:40;;;;;;;3.43;1.67;;;30.20;27.20;;;;;;5034400;28;20961;-45
2022/07/26 10:48:16;;;;;;;3.60;1.40;;;30.20;27.50;;;;;;5034360;28;20987;-45
2022/07/26 10:50:47;;;;;;;2.23;1.30;;;30.20;27.20;;;;;;5034380;28;20468;-46
2022/07/26 10:53:24;;;;;;;3.60;1.37;;;30.20;27.40;;;;;;5034355;28;20754;-45
2022/07/26 10:55:51;;;;;;;2.73;1.50;;;30.20;27.40;;;;;;5034326;28;20396;-45
2022/07/26 10:58:18;;;;;;;1.70;0.90;;;30.10;27.20;;;;;;5034179;28;20490;-46
2022/07/26 11:01:03;;;;;;;2.30;1.30;;;30.10;26.70;;;;;;5034306;28;20412;-45
2022/07/26 11:03:37;;;;;;;1.60;0.80;;;30.00;25.60;;;;;;5034106;28;20424;-44
2022/07/26 11:06:15;;;;;;;2.57;1.13;;;30.00;26.40;;;;;;5033827;28;20408;-46
2022/07/26 11:08:42;;;;;;;1.87;1.00;;;30.20;27.20;;;;;;5033622;28;20414;-45
2022/07/26 11:11:07;;;;;;;2.40;1.30;;;30.60;26.60;;;;;;5033014;28;20401;-45
2022/07/26 11:13:35;;;;;;;3.60;1.30;;;30.80;24.90;;;;;;5033923;28;20428;-45
2022/07/26 11:16:07;;;;;;;1.93;1.03;;;30.90;25.10;;;;;;5033434;28;20180;-46
2022/07/26 11:18:34;;;;;;;1.87;0.93;;;31.00;25.30;;;;;;5033732;28;20467;-45
2022/07/26 11:21:15;;;;;;;2.43;1.37;;;31.30;25.20;;;;;;5033605;28;20401;-45
2022/07/26 11:23:46;;;;;;;2.40;1.40;;;31.60;24.60;;;;;;5033388;28;20428;-45
2022/07/26 11:26:20;;;;;;;2.37;1.20;;;31.70;23.60;;;;;;5033230;28;20858;-45
2022/07/26 11:28:58;;;;;;;2.30;1.60;;;31.80;25.20;;;;;;5033447;28;20404;-45
2022/07/26 11:31:39;;;;;;;3.47;1.43;;;31.80;24.90;;;;;;5033620;28;20427;-45
2022/07/26 11:34:06;;;;;;;2.23;1.33;;;31.70;25.30;;;;;;5033282;28;20447;-44
2022/07/26 11:36:32;;;;;;;3.13;1.43;;;31.50;25.00;;;;;;5032980;28;20412;-44
2022/07/26 11:39:00;;;;;;;2.87;1.00;;;31.50;25.50;;;;;;5033530;28;20412;-45
2022/07/26 11:41:27;;;;;;;3.20;1.37;;;31.50;25.20;;;;;;5033491;28;20412;-44
2022/07/26 11:43:55;;;;;;;2.00;1.13;;;31.70;26.20;;;;;;5033012;28;20427;-45
2022/07/26 11:46:22;;;;;;;3.13;1.40;;;32.00;25.80;;;;;;5032874;28;20447;-46
2022/07/26 11:48:52;;;;;;;2.60;1.27;;;32.00;25.20;;;;;;5033175;28;20742;-46
2022/07/26 11:51:23;;;;;;;2.37;1.10;;;32.10;24.90;;;;;;5033171;28;20404;-46
2022/07/26 11:53:50;;;;;;;1.87;0.90;;;32.10;24.60;;;;;;5033052;28;20425;-46
2022/07/26 11:56:19;;;;;;;7.70;1.30;;;32.10;23.90;;;;;;5032880;28;20412;-46
2022/07/26 11:58:48;;;;;;;1.87;0.90;;;32.30;24.20;;;;;;5032960;28;20484;-46
2022/07/26 12:01:17;;;;;;;2.00;1.00;;;32.40;24.50;;;;;;5031563;28;20448;-45
2022/07/26 12:03:46;;;;;;;1.90;1.20;;;32.40;23.70;;;;;;5032718;28;20489;-46
2022/07/26 12:06:16;;;;;;;1.97;1.17;;;32.50;23.30;;;;;;5032388;28;20440;-45
2022/07/26 12:08:46;;;;;;;1.70;0.90;;;32.40;23.60;;;;;;5032980;28;20806;-45
2022/07/26 12:11:13;;;;;;;2.00;1.10;;;32.40;23.70;;;;;;5032839;28;20405;-46
2022/07/26 12:13:57;;;;;;;2.10;1.00;;;32.30;23.90;;;;;;5032856;28;20433;-46
2022/07/26 12:16:42;;;;;;;2.93;1.00;;;32.30;22.90;;;;;;5032513;28;20400;-45
2022/07/26 12:19:17;;;;;;;1.93;1.23;;;32.20;22.90;;;;;;5032566;28;20410;-46
2022/07/26 12:21:46;;;;;;;2.43;1.13;;;32.30;22.30;;;;;;5032391;28;20466;-46
2022/07/26 12:24:31;;;;;;;2.67;1.40;;;32.40;23.50;;;;;;5032411;28;20471;-46
2022/07/26 12:27:08;;;;;;;1.90;0.90;;;32.60;23.70;;;;;;5032228;28;20440;-46
2022/07/26 12:29:35;;;;;;;2.23;0.80;;;32.80;22.50;;;;;;5032379;28;20385;-46
2022/07/26 12:32:10;;;;;;;4.63;1.20;;;32.90;20.20;;;;;;5032284;28;20411;-46
2022/07/26 12:34:37;;;;;;;2.00;0.97;;;33.00;21.30;;;;;;5032101;28;20443;-46
2022/07/26 12:37:11;;;;;;;2.00;0.97;;;33.10;21.30;;;;;;5031954;28;20908;-45
2022/07/26 12:39:37;;;;;;;1.80;0.80;;;33.30;20.00;;;;;;5032421;28;20436;-46
2022/07/26 12:42:22;;;;;;;3.53;1.20;;;33.30;20.10;;;;;;5032110;28;20912;-46
2022/07/26 12:44:48;;;;;;;3.03;1.00;;;33.40;20.50;;;;;;5032197;28;20929;-47
2022/07/26 12:47:14;;;;;;;1.80;0.90;;;33.50;20.30;;;;;;5049647;22;20940;-48
2022/07/26 12:49:40;;;;;;;1.60;0.70;;;33.60;18.80;;;;;;5052065;28;20176;-47